createdAt,value
2019-02-20T00:00:41.744Z,58.30
2019-02-20T00:03:11.332Z,58.20
2019-02-20T00:05:40.751Z,58.30
2019-02-20T00:08:10.196Z,58.80
2019-02-20T00:10:39.611Z,58.70
2019-02-20T00:13:09.071Z,58.20
2019-02-20T00:15:38.522Z,58.10
2019-02-20T00:18:08.169Z,59.50
2019-02-20T00:20:37.789Z,61.00
2019-02-20T00:23:07.728Z,60.30
2019-02-20T00:25:37.199Z,61.60
2019-02-20T00:28:06.617Z,61.80
2019-02-20T00:30:36.262Z,60.10
2019-02-20T00:33:05.785Z,59.20
2019-02-20T00:35:35.216Z,58.70
2019-02-20T00:38:04.746Z,59.40
2019-02-20T00:40:34.235Z,59.50
2019-02-20T00:43:04.021Z,59.30
2019-02-20T00:45:38.077Z,59.70
2019-02-20T00:48:17.797Z,59.20
2019-02-20T00:50:48.884Z,59.40
2019-02-20T00:53:20.385Z,59.90
2019-02-20T00:55:50.171Z,59.00
2019-02-20T00:58:19.796Z,58.80
2019-02-20T01:00:49.227Z,58.50
2019-02-20T01:03:18.715Z,59.10
2019-02-20T01:05:48.379Z,58.90
2019-02-20T01:08:17.811Z,59.10
2019-02-20T01:10:47.619Z,59.20
2019-02-20T01:13:17.135Z,59.20
2019-02-20T01:15:46.564Z,58.90
2019-02-20T01:18:15.979Z,59.00
2019-02-20T01:20:45.515Z,60.10
2019-02-20T01:23:14.945Z,61.80
2019-02-20T01:25:44.509Z,62.20
2019-02-20T01:28:14.233Z,61.60
2019-02-20T01:30:43.659Z,61.30
2019-02-20T01:33:13.304Z,60.00
2019-02-20T01:35:43.084Z,61.40
2019-02-20T01:38:12.499Z,60.90
2019-02-20T01:40:42.099Z,61.90
2019-02-20T01:43:11.929Z,61.70
2019-02-20T01:45:41.742Z,60.70
2019-02-20T01:48:11.548Z,59.90
2019-02-20T01:50:41.424Z,59.80
2019-02-20T01:53:10.992Z,59.90
2019-02-20T01:55:40.416Z,61.00
2019-02-20T01:58:09.943Z,60.40
2019-02-20T02:00:39.368Z,61.40
2019-02-20T02:03:09.180Z,62.00
2019-02-20T02:05:38.631Z,61.70
2019-02-20T02:08:08.115Z,60.10
2019-02-20T02:10:37.536Z,60.60
2019-02-20T02:13:07.308Z,61.40
2019-02-20T02:15:36.801Z,61.90
2019-02-20T02:18:06.311Z,60.00
2019-02-20T02:20:36.206Z,60.80
2019-02-20T02:23:06.597Z,61.10
2019-02-20T02:25:36.091Z,61.50
2019-02-20T02:28:05.611Z,62.30
2019-02-20T02:30:35.053Z,62.10
2019-02-20T02:33:04.648Z,62.20
2019-02-20T02:35:34.215Z,61.60
2019-02-20T02:38:03.893Z,62.00
2019-02-20T02:40:33.364Z,63.10
2019-02-20T02:43:03.099Z,62.20
2019-02-20T02:45:33.341Z,62.10
2019-02-20T02:48:02.847Z,62.20
2019-02-20T02:50:32.416Z,61.90
2019-02-20T02:53:01.904Z,61.60
2019-02-20T02:55:31.391Z,60.10
2019-02-20T02:58:01.127Z,60.00
2019-02-20T03:00:30.912Z,60.50
2019-02-20T03:03:00.380Z,60.30
2019-02-20T03:05:29.899Z,60.20
2019-02-20T03:07:59.608Z,59.70
2019-02-20T03:10:29.324Z,61.10
2019-02-20T03:12:58.787Z,61.50
2019-02-20T03:15:28.641Z,61.70
2019-02-20T03:17:58.452Z,61.30
2019-02-20T03:20:28.223Z,61.00
2019-02-20T03:22:57.914Z,61.20
2019-02-20T03:25:27.400Z,60.20
2019-02-20T03:27:57.296Z,59.70
2019-02-20T03:30:27.208Z,60.40
2019-02-20T03:32:56.757Z,60.70
2019-02-20T03:35:26.546Z,61.20
2019-02-20T03:37:56.244Z,61.10
2019-02-20T03:40:25.735Z,61.10
2019-02-20T03:42:55.615Z,61.00
2019-02-20T03:45:25.036Z,60.80
2019-02-20T03:47:54.751Z,60.90
2019-02-20T03:50:24.216Z,61.20
2019-02-20T03:52:53.632Z,61.20
2019-02-20T03:55:23.077Z,61.60
2019-02-20T03:57:52.955Z,61.10
2019-02-20T04:00:22.537Z,61.20
2019-02-20T04:02:51.960Z,61.70
2019-02-20T04:05:21.784Z,61.20
2019-02-20T04:07:51.288Z,61.40
2019-02-20T04:10:20.779Z,61.80
2019-02-20T04:12:50.219Z,62.60
2019-02-20T04:15:19.913Z,63.90
2019-02-20T04:17:49.423Z,61.80
2019-02-20T04:20:18.939Z,61.90
2019-02-20T04:22:48.382Z,61.80
2019-02-20T04:25:17.866Z,61.70
2019-02-20T04:27:47.639Z,61.00
2019-02-20T04:30:17.904Z,61.30
2019-02-20T04:32:47.820Z,60.90
2019-02-20T04:35:17.498Z,61.30
2019-02-20T04:37:47.344Z,61.90
2019-02-20T04:40:16.778Z,61.70
2019-02-20T04:42:46.232Z,62.00
2019-02-20T04:45:15.725Z,61.90
2019-02-20T04:47:45.576Z,62.10
2019-02-20T04:50:15.956Z,61.70
2019-02-20T04:52:45.384Z,62.50
2019-02-20T04:55:14.814Z,62.20
2019-02-20T04:57:44.352Z,62.10
2019-02-20T05:00:14.492Z,63.20
2019-02-20T05:02:43.996Z,63.60
2019-02-20T05:05:13.691Z,63.10
2019-02-20T05:08:02.512Z,63.00
2019-02-20T05:10:32.167Z,63.30
2019-02-20T05:13:01.590Z,62.20
2019-02-20T05:15:31.157Z,62.80
2019-02-20T05:18:00.701Z,63.70
2019-02-20T05:20:30.191Z,63.90
2019-02-20T05:22:59.612Z,63.70
2019-02-20T05:25:29.061Z,62.70
2019-02-20T05:27:58.480Z,62.40
2019-02-20T05:30:28.197Z,62.80
2019-02-20T05:32:57.800Z,62.70
2019-02-20T05:35:27.232Z,64.60
2019-02-20T05:37:56.720Z,65.30
2019-02-20T05:40:26.179Z,65.10
2019-02-20T05:42:55.743Z,65.30
2019-02-20T05:45:25.396Z,64.50
2019-02-20T05:47:54.979Z,63.00
2019-02-20T05:50:24.400Z,63.80
2019-02-20T05:52:54.363Z,64.60
2019-02-20T05:55:24.196Z,64.60
2019-02-20T05:57:53.875Z,65.30
2019-02-20T06:00:23.298Z,66.10
2019-02-20T06:02:53.265Z,65.50
2019-02-20T06:05:22.712Z,64.20
2019-02-20T06:07:52.206Z,64.00
2019-02-20T06:10:21.748Z,64.40
2019-02-20T06:12:51.608Z,63.80
2019-02-20T06:15:21.030Z,64.40
2019-02-20T06:17:50.978Z,64.10
2019-02-20T06:20:20.732Z,63.90
2019-02-20T06:22:50.228Z,64.50
2019-02-20T06:25:19.716Z,64.30
2019-02-20T06:27:49.136Z,63.80
2019-02-20T06:30:18.794Z,63.70
2019-02-20T06:32:48.314Z,63.50
2019-02-20T06:35:17.900Z,62.70
2019-02-20T06:37:47.427Z,64.40
2019-02-20T06:40:17.779Z,63.80
2019-02-20T06:42:47.203Z,63.50
2019-02-20T06:45:16.638Z,63.60
2019-02-20T06:47:46.723Z,63.90
2019-02-20T06:50:16.287Z,63.60
2019-02-20T06:52:45.780Z,63.60
2019-02-20T06:55:15.939Z,64.30
2019-02-20T06:57:45.433Z,65.50
2019-02-20T07:00:15.326Z,65.90
2019-02-20T07:02:45.153Z,65.20
2019-02-20T07:05:31.974Z,64.60
2019-02-20T07:08:38.028Z,63.20
2019-02-20T07:11:22.324Z,63.20
2019-02-20T07:14:20.143Z,63.10
2019-02-20T07:17:07.670Z,63.90
2019-02-20T07:20:03.196Z,64.60
2019-02-20T07:22:44.031Z,65.60
2019-02-20T07:25:28.614Z,65.20
2019-02-20T07:28:25.158Z,65.50
2019-02-20T07:30:54.676Z,65.10
2019-02-20T07:33:24.524Z,65.70
2019-02-20T07:35:53.947Z,67.00
2019-02-20T07:38:23.591Z,67.30
2019-02-20T07:40:53.011Z,68.20
2019-02-20T07:43:22.959Z,67.40
2019-02-20T07:45:52.447Z,67.00
2019-02-20T07:48:22.110Z,66.60
2019-02-20T07:50:51.599Z,66.70
2019-02-20T07:53:21.157Z,65.30
2019-02-20T07:55:51.000Z,66.30
2019-02-20T07:58:20.700Z,65.50
2019-02-20T08:00:50.397Z,65.30
2019-02-20T08:03:19.896Z,65.30
2019-02-20T08:05:49.464Z,64.80
2019-02-20T08:08:18.935Z,65.00
2019-02-20T08:10:48.431Z,64.50
2019-02-20T08:13:18.012Z,64.80
2019-02-20T08:15:47.583Z,64.30
2019-02-20T08:18:17.396Z,64.30
2019-02-20T08:20:47.209Z,64.40
2019-02-20T08:23:17.159Z,64.30
2019-02-20T08:25:47.388Z,65.10
2019-02-20T08:28:16.816Z,64.80
2019-02-20T08:30:46.427Z,64.50
2019-02-20T08:33:15.847Z,64.80
2019-02-20T08:35:45.269Z,64.30
2019-02-20T08:38:14.861Z,64.50
2019-02-20T08:40:44.363Z,64.50
2019-02-20T08:43:13.791Z,64.00
2019-02-20T08:45:43.307Z,64.10
2019-02-20T08:48:12.791Z,63.70
2019-02-20T08:50:42.484Z,63.50
2019-02-20T08:53:11.927Z,62.80
2019-02-20T08:55:41.347Z,62.60
2019-02-20T08:58:10.760Z,63.40
2019-02-20T09:00:41.560Z,63.70
2019-02-20T09:03:11.059Z,64.00
2019-02-20T09:05:40.552Z,64.20
2019-02-20T09:08:10.763Z,63.90
2019-02-20T09:10:40.212Z,64.00
2019-02-20T09:13:10.094Z,65.50
2019-02-20T09:15:39.731Z,64.30
2019-02-20T09:18:09.224Z,63.80
2019-02-20T09:20:39.008Z,64.20
2019-02-20T09:23:08.929Z,63.90
2019-02-20T09:25:41.552Z,64.50
2019-02-20T09:28:09.675Z,65.60
2019-02-20T09:30:39.452Z,65.00
2019-02-20T09:33:08.904Z,64.60
2019-02-20T09:35:38.705Z,64.80
2019-02-20T09:38:10.423Z,62.70
2019-02-20T09:40:39.763Z,64.30
2019-02-20T09:43:09.251Z,64.10
2019-02-20T09:45:41.848Z,63.80
2019-02-20T09:48:10.336Z,63.60
2019-02-20T09:50:40.146Z,62.50
2019-02-20T09:53:10.123Z,62.60
2019-02-20T09:55:39.568Z,62.60
2019-02-20T09:58:09.147Z,66.00
2019-02-20T10:00:38.618Z,66.20
2019-02-20T10:03:08.801Z,66.50
2019-02-20T10:05:38.315Z,65.30
2019-02-20T10:08:08.023Z,64.00
2019-02-20T10:10:37.851Z,62.00
2019-02-20T10:13:09.269Z,62.80
2019-02-20T10:15:38.887Z,63.90
2019-02-20T10:18:08.321Z,61.30
2019-02-20T10:20:37.820Z,61.60
2019-02-20T10:23:07.707Z,64.50
2019-02-20T10:25:37.140Z,66.00
2019-02-20T10:28:06.575Z,65.60
2019-02-20T10:30:36.339Z,64.60
2019-02-20T10:33:05.903Z,63.50
2019-02-20T10:35:35.784Z,66.00
2019-02-20T10:38:05.952Z,58.70
2019-02-20T10:40:35.380Z,60.70
2019-02-20T10:43:05.072Z,57.90
2019-02-20T10:45:34.595Z,59.10
2019-02-20T10:48:04.103Z,61.10
2019-02-20T10:50:33.628Z,58.40
2019-02-20T10:53:03.279Z,60.10
2019-02-20T10:55:32.779Z,56.90
2019-02-20T10:58:02.267Z,59.00
2019-02-20T11:00:32.918Z,64.70
2019-02-20T11:03:02.341Z,62.10
2019-02-20T11:05:33.364Z,57.10
2019-02-20T11:08:03.052Z,57.70
2019-02-20T11:10:32.566Z,52.70
2019-02-20T11:13:02.135Z,53.90
2019-02-20T11:15:31.614Z,55.70
2019-02-20T11:18:01.139Z,54.50
2019-02-20T11:20:30.847Z,52.60
2019-02-20T11:23:00.626Z,54.40
2019-02-20T11:25:31.287Z,52.80
2019-02-20T11:28:01.179Z,54.20
2019-02-20T11:30:31.053Z,58.20
2019-02-20T11:33:00.556Z,56.50
2019-02-20T11:35:30.121Z,53.70
2019-02-20T11:37:59.611Z,54.80
2019-02-20T11:40:29.178Z,55.60
2019-02-20T11:42:58.675Z,54.80
2019-02-20T11:45:28.747Z,52.10
2019-02-20T11:47:58.460Z,51.30
2019-02-20T11:50:29.031Z,52.10
2019-02-20T11:52:58.515Z,49.60
2019-02-20T11:55:28.138Z,50.70
2019-02-20T11:58:00.799Z,43.90
2019-02-20T12:00:28.814Z,50.10
2019-02-20T12:02:58.316Z,48.90
2019-02-20T12:05:28.297Z,45.80
2019-02-20T12:07:58.171Z,43.30
2019-02-20T12:10:27.741Z,43.80
2019-02-20T12:12:57.534Z,44.80
2019-02-20T12:15:26.992Z,45.60
2019-02-20T12:17:56.630Z,46.30
2019-02-20T12:20:26.059Z,46.70
2019-02-20T12:22:55.887Z,47.00
2019-02-20T12:25:25.675Z,47.50
2019-02-20T12:27:55.116Z,49.60
2019-02-20T12:30:25.253Z,47.20
2019-02-20T12:32:54.752Z,45.30
2019-02-20T12:35:24.176Z,44.90
2019-02-20T12:37:53.695Z,45.70
2019-02-20T12:40:23.731Z,45.50
2019-02-20T12:42:53.231Z,45.60
2019-02-20T12:45:22.965Z,45.10
2019-02-20T12:47:52.792Z,46.10
2019-02-20T12:50:22.512Z,45.80
2019-02-20T12:52:52.326Z,44.00
2019-02-20T12:55:22.425Z,42.80
2019-02-20T12:57:52.448Z,42.40
2019-02-20T13:00:23.484Z,43.50
2019-02-20T13:02:53.690Z,45.90
2019-02-20T13:05:23.558Z,44.20
2019-02-20T13:07:53.520Z,43.20
2019-02-20T13:10:23.270Z,43.70
2019-02-20T13:12:52.919Z,43.20
2019-02-20T13:15:22.613Z,43.00
2019-02-20T13:17:52.040Z,42.50
2019-02-20T13:20:21.485Z,43.10
2019-02-20T13:22:51.065Z,41.70
2019-02-20T13:25:21.123Z,41.00
2019-02-20T13:27:50.640Z,40.20
2019-02-20T13:30:20.836Z,42.60
2019-02-20T13:32:51.089Z,39.60
2019-02-20T13:35:20.796Z,39.20
2019-02-20T13:37:50.256Z,38.60
2019-02-20T13:40:20.092Z,38.40
2019-02-20T13:42:49.700Z,39.40
2019-02-20T13:45:21.480Z,39.90
2019-02-20T13:47:51.047Z,41.20
2019-02-20T13:50:20.551Z,42.30
2019-02-20T13:52:52.777Z,42.00
2019-02-20T13:55:22.818Z,41.30
2019-02-20T13:57:52.691Z,41.50
2019-02-20T14:00:22.542Z,41.30
2019-02-20T14:02:53.746Z,41.50
2019-02-20T14:05:23.907Z,42.30
2019-02-20T14:07:53.499Z,41.30
2019-02-20T14:10:23.101Z,41.20
2019-02-20T14:12:53.004Z,41.60
2019-02-20T14:15:23.851Z,42.80
2019-02-20T14:17:53.445Z,42.40
2019-02-20T14:20:24.852Z,44.20
2019-02-20T14:22:55.497Z,42.70
2019-02-20T14:25:25.296Z,40.40
2019-02-20T14:27:55.212Z,39.50
2019-02-20T14:30:24.910Z,39.80
2019-02-20T14:32:54.485Z,41.60
2019-02-20T14:35:24.654Z,40.30
2019-02-20T14:38:01.670Z,40.80
2019-02-20T14:40:34.280Z,42.10
2019-02-20T14:43:04.051Z,42.60
2019-02-20T14:45:33.642Z,41.60
2019-02-20T14:48:03.876Z,41.70
2019-02-20T14:50:35.099Z,41.50
2019-02-20T14:53:04.818Z,41.80
2019-02-20T14:55:34.550Z,42.20
2019-02-20T14:58:04.307Z,42.00
2019-02-20T15:00:34.338Z,42.50
2019-02-20T15:03:04.872Z,42.40
2019-02-20T15:05:34.693Z,41.90
2019-02-20T15:08:05.524Z,41.70
2019-02-20T15:10:35.547Z,42.20
2019-02-20T15:13:05.506Z,42.30
2019-02-20T15:15:35.785Z,42.60
2019-02-20T15:18:05.362Z,42.70
2019-02-20T15:20:35.630Z,41.80
2019-02-20T15:23:05.451Z,42.70
2019-02-20T15:25:35.016Z,43.40
2019-02-20T15:28:04.771Z,43.20
2019-02-20T15:30:35.085Z,43.80
2019-02-20T15:33:05.176Z,43.60
2019-02-20T15:35:34.907Z,43.60
2019-02-20T15:38:05.198Z,43.60
2019-02-20T15:40:34.763Z,43.30
2019-02-20T15:43:06.612Z,43.50
2019-02-20T15:45:36.592Z,43.90
2019-02-20T15:48:06.829Z,43.90
2019-02-20T15:50:36.607Z,43.80
2019-02-20T15:53:07.144Z,44.10
2019-02-20T15:55:36.815Z,44.10
2019-02-20T15:58:06.411Z,44.10
2019-02-20T16:00:36.316Z,44.10
2019-02-20T16:03:06.331Z,43.90
2019-02-20T16:05:36.083Z,44.30
2019-02-20T16:08:07.261Z,44.20
2019-02-20T16:10:37.436Z,44.10
2019-02-20T16:13:07.192Z,44.60
2019-02-20T16:15:36.894Z,44.50
2019-02-20T16:18:06.905Z,44.00
2019-02-20T16:20:36.539Z,44.30
2019-02-20T16:23:07.711Z,44.40
2019-02-20T16:25:42.433Z,44.50
2019-02-20T16:28:12.921Z,44.90
2019-02-20T16:30:42.545Z,44.60
2019-02-20T16:33:12.585Z,44.80
2019-02-20T16:35:42.326Z,45.30
2019-02-20T16:38:12.404Z,45.20
2019-02-20T16:40:42.113Z,44.90
2019-02-20T16:43:11.799Z,45.30
2019-02-20T16:45:41.339Z,45.40
2019-02-20T16:48:12.180Z,45.70
2019-02-20T16:50:41.898Z,45.80
2019-02-20T16:53:11.449Z,46.00
2019-02-20T16:55:41.848Z,45.60
2019-02-20T16:58:11.944Z,45.60
2019-02-20T17:00:41.487Z,46.80
2019-02-20T17:03:11.514Z,46.50
2019-02-20T17:05:43.351Z,46.10
2019-02-20T17:08:12.940Z,45.80
2019-02-20T17:10:43.975Z,45.80
2019-02-20T17:13:14.901Z,46.00
2019-02-20T17:15:44.871Z,46.00
2019-02-20T17:18:15.027Z,46.00
2019-02-20T17:20:46.991Z,45.80
2019-02-20T17:23:16.588Z,45.90
2019-02-20T17:25:46.600Z,46.10
2019-02-20T17:28:16.519Z,46.80
2019-02-20T17:30:46.232Z,47.30
2019-02-20T17:33:16.322Z,46.70
2019-02-20T17:35:46.271Z,46.70
2019-02-20T17:38:16.191Z,46.70
2019-02-20T17:40:46.231Z,46.90
2019-02-20T17:43:15.908Z,47.10
2019-02-20T17:45:45.413Z,46.70
2019-02-20T17:48:15.416Z,47.20
2019-02-20T17:50:45.028Z,47.80
2019-02-20T17:53:19.676Z,48.40
2019-02-20T17:55:49.908Z,48.30
2019-02-20T17:58:20.079Z,47.50
2019-02-20T18:00:50.607Z,47.70
2019-02-20T18:03:20.828Z,47.60
2019-02-20T18:05:51.072Z,47.80
2019-02-20T18:08:23.475Z,47.50
2019-02-20T18:10:53.000Z,47.80
2019-02-20T18:13:22.910Z,48.00
2019-02-20T18:15:52.336Z,48.10
2019-02-20T18:18:22.029Z,48.00
2019-02-20T18:20:51.795Z,48.60
2019-02-20T18:23:24.172Z,48.80
2019-02-20T18:25:53.677Z,48.40
2019-02-20T18:28:25.000Z,48.60
2019-02-20T18:30:54.890Z,48.50
2019-02-20T18:33:24.415Z,49.10
2019-02-20T18:35:53.947Z,48.50
2019-02-20T18:38:24.300Z,48.80
2019-02-20T18:40:55.736Z,48.70
2019-02-20T18:43:24.912Z,48.70
2019-02-20T18:45:54.363Z,49.10
2019-02-20T18:48:24.392Z,48.90
2019-02-20T18:50:54.167Z,48.70
2019-02-20T18:53:24.327Z,49.00
2019-02-20T18:55:55.983Z,48.80
2019-02-20T18:58:33.764Z,48.70
2019-02-20T19:00:57.216Z,49.00
2019-02-20T19:03:26.773Z,48.80
2019-02-20T19:05:58.248Z,49.30
2019-02-20T19:08:40.519Z,49.60
2019-02-20T19:11:18.972Z,49.00
2019-02-20T19:14:03.288Z,49.10
2019-02-20T19:16:40.671Z,49.00
2019-02-20T19:19:33.271Z,49.30
2019-02-20T19:22:14.235Z,49.10
2019-02-20T19:25:07.525Z,49.10
2019-02-20T19:27:59.366Z,48.80
2019-02-20T19:30:46.787Z,48.80
2019-02-20T19:33:38.023Z,49.20
2019-02-20T19:36:13.328Z,49.50
2019-02-20T19:38:46.326Z,50.80
2019-02-20T19:41:35.358Z,50.40
2019-02-20T19:44:19.975Z,50.90
2019-02-20T19:46:58.521Z,50.90
2019-02-20T19:49:50.818Z,50.40
2019-02-20T19:52:46.379Z,50.00
2019-02-20T19:55:27.856Z,50.90
2019-02-20T19:58:16.780Z,50.90
2019-02-20T20:00:55.230Z,50.80
2019-02-20T20:03:30.856Z,51.10
2019-02-20T20:06:18.323Z,51.60
2019-02-20T20:09:13.629Z,51.90
2019-02-20T20:12:05.419Z,51.30
2019-02-20T20:15:07.217Z,51.40
2019-02-20T20:18:02.519Z,51.60
2019-02-20T20:20:44.787Z,51.60
2019-02-20T20:23:17.728Z,51.60
2019-02-20T20:26:22.170Z,51.20
2019-02-20T20:29:11.546Z,52.00
2019-02-20T20:31:46.950Z,53.50
2019-02-20T20:34:25.160Z,53.80
2019-02-20T20:37:05.583Z,52.70
2019-02-20T20:40:11.259Z,52.50
2019-02-20T20:43:07.455Z,52.20
2019-02-20T20:45:51.580Z,52.50
2019-02-20T20:48:39.190Z,52.40
2019-02-20T20:51:28.548Z,53.90
2019-02-20T20:54:25.351Z,53.30
2019-02-20T20:57:26.536Z,53.50
2019-02-20T21:00:11.219Z,53.70
2019-02-20T21:02:43.702Z,53.50
2019-02-20T21:05:37.548Z,52.60
2019-02-20T21:08:10.268Z,53.10
2019-02-20T21:11:07.169Z,52.50
2019-02-20T21:14:09.292Z,52.20
2019-02-20T21:17:04.515Z,53.60
2019-02-20T21:19:52.136Z,54.10
2019-02-20T21:22:45.867Z,53.20
2019-02-20T21:25:21.539Z,52.70
2019-02-20T21:28:02.611Z,53.50
2019-02-20T21:30:40.740Z,53.70
2019-02-20T21:33:16.199Z,54.40
2019-02-20T21:36:05.024Z,54.50
2019-02-20T21:38:55.680Z,53.20
2019-02-20T21:41:37.202Z,53.80
2019-02-20T21:44:21.763Z,53.20
2019-02-20T21:47:10.940Z,53.90
2019-02-20T21:50:00.447Z,54.90
2019-02-20T21:52:44.911Z,54.20
2019-02-20T21:55:26.317Z,54.80
2019-02-20T21:57:59.044Z,54.90
2019-02-20T22:00:46.417Z,54.50
2019-02-20T22:03:28.258Z,53.60
2019-02-20T22:06:03.832Z,54.00
2019-02-20T22:08:52.947Z,54.60
2019-02-20T22:11:37.530Z,54.60
2019-02-20T22:14:35.623Z,55.60
2019-02-20T22:17:35.006Z,55.40
2019-02-20T22:20:16.499Z,55.40
2019-02-20T22:23:06.527Z,54.60
2019-02-20T22:26:11.140Z,54.30
2019-02-20T22:28:53.032Z,54.30
2019-02-20T22:31:45.384Z,54.10
2019-02-20T22:34:36.303Z,54.00
2019-02-20T22:37:11.497Z,54.00
2019-02-20T22:39:44.392Z,53.50
2019-02-20T22:42:42.776Z,54.20
2019-02-20T22:45:24.496Z,54.20
2019-02-20T22:48:06.635Z,54.70
2019-02-20T22:50:53.923Z,55.30
2019-02-20T22:53:47.334Z,55.60
2019-02-20T22:56:53.797Z,55.00
2019-02-20T22:59:41.149Z,54.80
2019-02-20T23:02:22.873Z,53.80
2019-02-20T23:05:07.096Z,54.50
2019-02-20T23:07:51.399Z,54.70
2019-02-20T23:10:23.895Z,55.00
2019-02-20T23:13:02.412Z,54.30
2019-02-20T23:15:32.124Z,54.70
2019-02-20T23:18:01.891Z,54.10
2019-02-20T23:20:32.087Z,54.50
2019-02-20T23:23:01.584Z,54.60
2019-02-20T23:25:31.304Z,54.30
2019-02-20T23:28:00.939Z,54.70
2019-02-20T23:30:31.448Z,55.30
2019-02-20T23:33:00.873Z,54.70
2019-02-20T23:35:30.991Z,55.20
2019-02-20T23:38:00.491Z,54.60
2019-02-20T23:40:29.920Z,54.70
2019-02-20T23:42:59.787Z,54.90
2019-02-20T23:45:29.520Z,54.70
2019-02-20T23:47:58.949Z,54.70
2019-02-20T23:50:28.436Z,54.70
2019-02-20T23:52:58.136Z,54.90
2019-02-20T23:55:27.836Z,54.90
2019-02-20T23:57:57.512Z,54.80
